createdAt,value
2022-10-20T00:01:55.223Z,15.35
2022-10-20T00:04:22.025Z,14.02
2022-10-20T00:06:48.907Z,13.88
2022-10-20T00:09:16.160Z,14.52
2022-10-20T00:11:46.075Z,12.32
2022-10-20T00:14:13.253Z,13.57
2022-10-20T00:16:41.075Z,18.38
2022-10-20T00:19:08.065Z,14.45
2022-10-20T00:21:35.535Z,10.90
2022-10-20T00:24:03.788Z,12.10
2022-10-20T00:26:38.221Z,12.88
2022-10-20T00:29:05.169Z,12.82
2022-10-20T00:31:32.583Z,15.45
2022-10-20T00:33:59.542Z,12.93
2022-10-20T00:36:26.352Z,12.30
2022-10-20T00:39:04.612Z,9.55
2022-10-20T00:41:32.486Z,13.80
2022-10-20T00:44:22.022Z,12.95
2022-10-20T00:46:48.911Z,13.07
2022-10-20T00:49:20.942Z,10.90
2022-10-20T00:51:49.221Z,11.32
2022-10-20T00:54:20.861Z,15.18
2022-10-20T00:56:50.039Z,11.02
2022-10-20T00:59:20.244Z,12.10
2022-10-20T01:01:47.136Z,12.88
2022-10-20T01:04:15.182Z,9.13
2022-10-20T01:06:42.011Z,11.63
2022-10-20T01:09:09.147Z,12.05
2022-10-20T01:11:41.737Z,13.95
2022-10-20T01:14:33.376Z,12.80
2022-10-20T01:17:24.381Z,14.35
2022-10-20T01:20:14.627Z,11.73
2022-10-20T01:23:02.716Z,13.38
2022-10-20T01:25:57.304Z,12.32
2022-10-20T01:28:42.010Z,10.90
2022-10-20T01:31:27.099Z,11.90
2022-10-20T01:34:09.932Z,10.07
2022-10-20T01:36:44.516Z,17.23
2022-10-20T01:39:18.226Z,13.63
2022-10-20T01:41:53.332Z,13.18
2022-10-20T01:44:22.806Z,17.10
2022-10-20T01:46:50.181Z,15.00
2022-10-20T01:49:17.182Z,15.27
2022-10-20T01:51:43.986Z,17.13
2022-10-20T01:54:26.793Z,14.65
2022-10-20T01:57:27.594Z,12.82
2022-10-20T01:59:57.390Z,15.15
2022-10-20T02:02:38.942Z,12.65
2022-10-20T02:05:15.453Z,14.30
2022-10-20T02:07:43.236Z,12.95
2022-10-20T02:10:16.771Z,13.80
2022-10-20T02:12:47.542Z,16.08
2022-10-20T02:15:20.538Z,14.95
2022-10-20T02:17:53.320Z,17.10
2022-10-20T02:20:20.364Z,18.83
2022-10-20T02:22:48.716Z,18.50
2022-10-20T02:25:15.664Z,13.68
2022-10-20T02:27:47.143Z,17.33
2022-10-20T02:30:17.475Z,13.75
2022-10-20T02:32:49.752Z,12.73
2022-10-20T02:35:29.823Z,13.35
2022-10-20T02:37:57.553Z,12.20
2022-10-20T02:40:24.823Z,10.05
2022-10-20T02:42:51.685Z,12.40
2022-10-20T02:45:18.911Z,12.05
2022-10-20T02:47:45.807Z,16.92
2022-10-20T02:50:13.122Z,14.55
2022-10-20T02:52:41.364Z,13.57
2022-10-20T02:55:08.765Z,11.68
2022-10-20T02:57:35.881Z,20.13
2022-10-20T03:00:03.734Z,14.45
2022-10-20T03:02:30.704Z,13.60
2022-10-20T03:04:57.507Z,14.50
2022-10-20T03:07:24.364Z,12.77
2022-10-20T03:09:51.211Z,15.50
2022-10-20T03:12:18.062Z,11.43
2022-10-20T03:14:45.621Z,11.27
2022-10-20T03:17:12.396Z,15.73
2022-10-20T03:19:41.043Z,16.23
2022-10-20T03:22:07.908Z,11.07
2022-10-20T03:24:34.702Z,15.00
2022-10-20T03:27:01.643Z,14.10
2022-10-20T03:29:28.511Z,13.82
2022-10-20T03:31:55.373Z,13.25
2022-10-20T03:34:22.270Z,14.10
2022-10-20T03:36:49.083Z,12.73
2022-10-20T03:39:16.116Z,15.95
2022-10-20T03:41:42.895Z,13.38
2022-10-20T03:44:11.265Z,12.00
2022-10-20T03:46:38.083Z,13.52
2022-10-20T03:49:05.193Z,19.50
2022-10-20T03:51:32.046Z,10.70
2022-10-20T03:53:58.989Z,15.48
2022-10-20T03:56:25.818Z,12.73
2022-10-20T03:58:52.748Z,12.98
2022-10-20T04:01:24.683Z,12.40
2022-10-20T04:03:51.503Z,15.05
2022-10-20T04:06:18.411Z,14.70
2022-10-20T04:08:45.369Z,11.98
2022-10-20T04:11:12.523Z,13.57
2022-10-20T04:13:39.608Z,11.65
2022-10-20T04:16:06.928Z,16.05
2022-10-20T04:18:33.824Z,13.23
2022-10-20T04:21:00.781Z,13.93
2022-10-20T04:23:27.650Z,13.85
2022-10-20T04:25:54.456Z,15.43
2022-10-20T04:28:21.539Z,19.63
2022-10-20T04:30:49.223Z,26.73
2022-10-20T04:33:16.405Z,20.88
2022-10-20T04:35:43.284Z,28.05
2022-10-20T04:38:10.198Z,19.83
2022-10-20T04:40:37.091Z,23.15
2022-10-20T04:43:03.954Z,21.95
2022-10-20T04:45:30.773Z,18.75
2022-10-20T04:47:57.591Z,20.73
2022-10-20T04:50:24.471Z,19.73
2022-10-20T04:52:51.531Z,20.30
2022-10-20T04:55:18.676Z,22.38
2022-10-20T04:57:45.535Z,31.10
2022-10-20T05:00:13.010Z,26.23
2022-10-20T05:02:39.779Z,20.75
2022-10-20T05:05:07.003Z,22.95
2022-10-20T05:07:34.069Z,22.25
2022-10-20T05:10:01.208Z,22.10
2022-10-20T05:12:28.612Z,20.52
2022-10-20T05:14:55.471Z,27.65
2022-10-20T05:17:22.399Z,26.65
2022-10-20T05:19:49.274Z,18.90
2022-10-20T05:22:16.100Z,25.45
2022-10-20T05:24:42.995Z,19.38
2022-10-20T05:27:09.801Z,19.00
2022-10-20T05:29:36.584Z,19.70
2022-10-20T05:32:24.735Z,24.48
2022-10-20T05:34:51.518Z,19.77
2022-10-20T05:37:18.417Z,13.60
2022-10-20T05:39:45.344Z,17.85
2022-10-20T05:42:12.276Z,17.60
2022-10-20T05:44:39.083Z,88.05
2022-10-20T05:47:05.889Z,17.35
2022-10-20T05:49:32.682Z,11.57
2022-10-20T05:51:59.583Z,11.43
2022-10-20T05:54:26.467Z,13.50
2022-10-20T05:56:53.245Z,27.98
2022-10-20T05:59:20.038Z,24.08
2022-10-20T06:01:49.691Z,32.15
2022-10-20T06:04:24.753Z,31.63
2022-10-20T06:06:52.873Z,30.45
2022-10-20T06:09:20.677Z,26.98
2022-10-20T06:11:48.031Z,30.52
2022-10-20T06:14:15.108Z,21.65
2022-10-20T06:16:41.953Z,22.83
2022-10-20T06:19:09.144Z,26.95
2022-10-20T06:21:37.816Z,15.95
2022-10-20T06:24:06.222Z,26.00
2022-10-20T06:26:36.797Z,34.13
2022-10-20T06:29:06.122Z,25.33
2022-10-20T06:31:41.748Z,26.90
2022-10-20T06:34:13.422Z,18.00
2022-10-20T06:36:42.215Z,16.83
2022-10-20T06:39:13.084Z,20.63
2022-10-20T06:41:40.237Z,26.08
2022-10-20T06:44:07.625Z,17.92
2022-10-20T06:46:36.795Z,18.98
2022-10-20T06:49:08.278Z,23.27
2022-10-20T06:51:35.928Z,19.30
2022-10-20T06:54:03.364Z,21.00
2022-10-20T06:56:32.203Z,20.70
2022-10-20T06:59:00.760Z,18.52
2022-10-20T07:01:36.268Z,18.63
2022-10-20T07:04:13.800Z,16.37
2022-10-20T07:06:43.157Z,14.32
2022-10-20T07:09:15.084Z,17.02
2022-10-20T07:11:42.443Z,14.68
2022-10-20T07:14:12.667Z,18.65
2022-10-20T07:16:39.622Z,10.75
2022-10-20T07:19:06.452Z,10.70
2022-10-20T07:21:36.495Z,17.52
2022-10-20T07:24:06.385Z,16.10
2022-10-20T07:26:36.253Z,20.42
2022-10-20T07:29:04.143Z,21.27
2022-10-20T07:31:34.867Z,27.92
2022-10-20T07:34:28.245Z,28.30
2022-10-20T07:36:50.184Z,25.42
2022-10-20T07:39:17.187Z,27.75
2022-10-20T07:41:45.777Z,27.90
2022-10-20T07:44:12.805Z,21.73
2022-10-20T07:46:39.826Z,21.23
2022-10-20T07:49:23.968Z,20.17
2022-10-20T07:54:20.247Z,23.02
2022-10-20T07:56:47.259Z,21.27
2022-10-20T07:59:14.543Z,15.32
2022-10-20T08:01:41.999Z,17.40
2022-10-20T08:04:08.926Z,14.25
2022-10-20T08:06:36.182Z,14.40
2022-10-20T08:09:03.461Z,20.00
2022-10-20T08:11:30.471Z,15.65
2022-10-20T08:13:57.278Z,10.63
2022-10-20T08:16:31.040Z,12.88
2022-10-20T08:19:02.691Z,10.68
2022-10-20T08:21:29.526Z,12.10
2022-10-20T08:23:56.387Z,11.93
2022-10-20T08:26:26.024Z,12.55
2022-10-20T08:28:54.659Z,13.13
2022-10-20T08:31:22.093Z,12.50
2022-10-20T08:33:52.659Z,9.85
2022-10-20T08:36:20.235Z,16.45
2022-10-20T08:38:47.087Z,13.77
2022-10-20T08:41:22.148Z,13.43
2022-10-20T08:43:52.438Z,15.60
2022-10-20T08:46:21.033Z,10.07
2022-10-20T08:48:49.112Z,12.80
2022-10-20T08:51:25.311Z,11.68
2022-10-20T08:53:55.958Z,11.15
2022-10-20T08:56:29.411Z,9.00
2022-10-20T08:58:57.004Z,11.85
2022-10-20T09:01:27.551Z,10.45
2022-10-20T09:04:02.934Z,8.50
2022-10-20T09:06:33.687Z,8.80
2022-10-20T09:09:00.817Z,10.02
2022-10-20T09:11:49.293Z,8.90
2022-10-20T09:14:19.327Z,9.63
2022-10-20T09:16:59.763Z,7.50
2022-10-20T09:19:28.714Z,9.80
2022-10-20T09:21:58.454Z,9.95
2022-10-20T09:24:30.275Z,7.97
2022-10-20T09:27:16.148Z,11.63
2022-10-20T09:29:43.020Z,19.05
2022-10-20T09:32:49.361Z,9.15
2022-10-20T09:35:30.148Z,13.70
2022-10-20T09:38:11.771Z,17.02
2022-10-20T09:41:13.731Z,8.25
2022-10-20T09:43:57.149Z,15.38
2022-10-20T09:46:49.585Z,12.85
2022-10-20T09:49:44.817Z,9.85
2022-10-20T09:52:24.820Z,9.90
2022-10-20T09:54:56.545Z,12.60
2022-10-20T09:57:23.614Z,10.23
2022-10-20T09:59:52.957Z,12.25
2022-10-20T10:02:19.837Z,14.30
2022-10-20T10:04:49.137Z,9.98
2022-10-20T10:07:21.962Z,9.68
2022-10-20T10:09:56.519Z,9.00
2022-10-20T10:12:25.252Z,10.25
2022-10-20T10:15:08.351Z,19.80
2022-10-20T10:17:44.700Z,12.45
2022-10-20T10:20:11.461Z,8.57
2022-10-20T10:22:39.872Z,9.55
2022-10-20T10:25:14.826Z,11.43
2022-10-20T10:27:58.428Z,9.00
2022-10-20T10:30:37.619Z,10.23
2022-10-20T10:33:26.066Z,9.13
2022-10-20T10:35:53.237Z,11.90
2022-10-20T10:38:20.581Z,13.95
2022-10-20T10:41:12.343Z,10.35
2022-10-20T10:43:39.103Z,7.13
2022-10-20T10:46:07.310Z,12.68
2022-10-20T10:49:07.860Z,8.60
2022-10-20T10:51:59.415Z,12.48
2022-10-20T10:54:40.356Z,8.30
2022-10-20T10:57:28.755Z,11.32
2022-10-20T10:59:58.932Z,11.45
2022-10-20T11:02:40.929Z,12.75
2022-10-20T11:05:32.292Z,9.80
2022-10-20T11:07:59.027Z,13.05
2022-10-20T11:10:47.684Z,15.70
2022-10-20T11:13:17.448Z,12.25
2022-10-20T11:15:59.410Z,11.93
2022-10-20T11:18:44.788Z,9.23
2022-10-20T11:21:50.249Z,17.38
2022-10-20T11:24:47.508Z,11.95
2022-10-20T11:27:19.373Z,9.43
2022-10-20T11:30:09.769Z,11.52
2022-10-20T11:32:42.547Z,11.02
2022-10-20T11:35:29.472Z,25.10
2022-10-20T11:38:17.292Z,7.88
2022-10-20T11:40:54.880Z,10.25
2022-10-20T11:43:33.450Z,8.18
2022-10-20T11:46:23.735Z,10.77
2022-10-20T11:48:53.419Z,11.55
2022-10-20T11:51:33.579Z,12.82
2022-10-20T11:54:26.590Z,10.57
2022-10-20T11:57:19.588Z,9.73
2022-10-20T12:00:10.611Z,9.13
2022-10-20T12:02:59.233Z,8.52
2022-10-20T12:06:00.125Z,12.20
2022-10-20T12:08:48.720Z,15.15
2022-10-20T12:11:44.547Z,15.38
2022-10-20T12:14:14.416Z,13.15
2022-10-20T12:16:53.692Z,9.02
2022-10-20T12:19:34.974Z,8.48
2022-10-20T12:22:14.992Z,14.13
2022-10-20T12:24:53.785Z,9.55
2022-10-20T12:27:25.650Z,11.98
2022-10-20T12:30:42.484Z,16.00
2022-10-20T12:33:18.437Z,13.88
2022-10-20T12:36:17.144Z,15.40
2022-10-20T12:38:50.985Z,14.57
2022-10-20T12:41:34.063Z,14.95
2022-10-20T12:44:05.081Z,16.42
2022-10-20T12:46:34.182Z,14.60
2022-10-20T12:49:11.121Z,8.32
2022-10-20T12:51:51.100Z,11.55
2022-10-20T12:54:35.030Z,15.13
2022-10-20T12:57:23.629Z,11.98
2022-10-20T12:59:50.504Z,9.32
2022-10-20T13:02:17.624Z,18.10
2022-10-20T13:05:01.997Z,10.68
2022-10-20T13:07:47.109Z,10.30
2022-10-20T13:10:38.974Z,14.05
2022-10-20T13:13:05.723Z,12.77
2022-10-20T13:15:43.734Z,13.38
2022-10-20T13:18:13.524Z,17.88
2022-10-20T13:20:49.422Z,19.17
2022-10-20T13:23:18.939Z,19.50
2022-10-20T13:25:55.378Z,16.40
2022-10-20T13:28:25.228Z,21.33
2022-10-20T13:30:54.769Z,9.98
2022-10-20T13:34:04.059Z,11.02
2022-10-20T13:36:38.168Z,11.02
2022-10-20T13:39:22.278Z,8.52
2022-10-20T13:42:15.517Z,9.52
2022-10-20T13:44:53.621Z,7.53
2022-10-20T13:47:47.874Z,10.02
2022-10-20T13:50:22.851Z,15.00
2022-10-20T13:53:12.761Z,10.48
2022-10-20T13:56:02.198Z,7.65
2022-10-20T13:58:29.150Z,12.10
2022-10-20T14:01:00.959Z,10.60
2022-10-20T14:03:30.058Z,14.18
2022-10-20T14:05:59.118Z,13.60
2022-10-20T14:08:26.663Z,14.43
2022-10-20T14:11:00.318Z,20.02
2022-10-20T14:13:30.952Z,13.15
2022-10-20T14:15:59.943Z,16.75
2022-10-20T14:18:33.004Z,13.25
2022-10-20T14:21:02.780Z,12.02
2022-10-20T14:23:37.461Z,14.90
2022-10-20T14:26:11.150Z,14.50
2022-10-20T14:28:41.233Z,18.80
2022-10-20T14:31:12.123Z,14.80
2022-10-20T14:33:45.189Z,15.73
2022-10-20T14:36:30.873Z,14.05
2022-10-20T14:39:01.553Z,10.50
2022-10-20T14:41:33.016Z,15.93
2022-10-20T14:44:07.866Z,13.85
2022-10-20T14:46:42.195Z,9.73
2022-10-20T14:49:19.241Z,19.08
2022-10-20T14:54:22.044Z,13.43
2022-10-20T14:56:53.446Z,14.63
2022-10-20T14:59:23.883Z,12.13
2022-10-20T15:02:10.714Z,14.10
2022-10-20T15:04:43.272Z,15.48
2022-10-20T15:07:22.311Z,12.40
2022-10-20T15:09:53.580Z,13.57
2022-10-20T15:12:32.204Z,16.38
2022-10-20T15:15:19.936Z,18.92
2022-10-20T15:17:49.969Z,22.20
2022-10-20T15:20:34.439Z,21.42
2022-10-20T15:23:09.720Z,21.80
2022-10-20T15:25:53.522Z,20.50
2022-10-20T15:28:49.875Z,26.48
2022-10-20T15:31:21.358Z,21.98
2022-10-20T15:33:48.770Z,20.77
2022-10-20T15:36:21.746Z,24.02
2022-10-20T15:38:49.846Z,29.85
2022-10-20T15:41:19.419Z,33.30
2022-10-20T15:43:46.257Z,34.60
2022-10-20T15:46:15.709Z,30.55
2022-10-20T15:48:43.511Z,32.55
2022-10-20T15:51:30.461Z,37.13
2022-10-20T15:53:58.331Z,35.45
2022-10-20T15:56:25.710Z,38.80
2022-10-20T15:58:52.816Z,44.40
2022-10-20T16:01:21.453Z,38.00
2022-10-20T16:03:49.173Z,43.72
2022-10-20T16:06:18.168Z,47.17
2022-10-20T16:08:47.711Z,57.63
2022-10-20T16:11:17.370Z,42.95
2022-10-20T16:13:44.256Z,44.95
2022-10-20T16:16:13.778Z,43.55
2022-10-20T16:18:40.748Z,43.65
2022-10-20T16:21:07.726Z,31.63
2022-10-20T16:23:42.315Z,41.38
2022-10-20T16:26:13.227Z,33.35
2022-10-20T16:28:40.257Z,22.23
2022-10-20T16:31:09.659Z,28.02
2022-10-20T16:33:37.193Z,25.83
2022-10-20T16:38:39.177Z,26.67
2022-10-20T16:41:10.203Z,24.65
2022-10-20T16:43:41.998Z,32.10
2022-10-20T16:46:11.234Z,50.20
2022-10-20T16:48:43.851Z,54.00
2022-10-20T16:51:15.600Z,67.55
2022-10-20T16:53:42.728Z,63.35
2022-10-20T16:56:09.762Z,57.65
2022-10-20T16:58:36.639Z,73.13
2022-10-20T17:01:08.701Z,60.47
2022-10-20T17:03:37.820Z,63.38
2022-10-20T17:06:06.983Z,63.60
2022-10-20T17:08:36.181Z,73.50
2022-10-20T17:11:06.049Z,59.63
2022-10-20T17:13:33.898Z,50.58
2022-10-20T17:16:10.271Z,64.00
2022-10-20T17:18:37.571Z,55.95
2022-10-20T17:21:04.796Z,61.80
2022-10-20T17:23:36.264Z,59.17
2022-10-20T17:26:07.331Z,66.47
2022-10-20T17:28:36.485Z,58.58
2022-10-20T17:31:06.557Z,59.28
2022-10-20T17:33:33.600Z,56.88
2022-10-20T17:36:01.619Z,64.78
2022-10-20T17:38:29.541Z,57.90
2022-10-20T17:40:56.611Z,53.80
2022-10-20T17:43:24.101Z,57.38
2022-10-20T17:46:01.571Z,57.88
2022-10-20T17:48:28.632Z,60.22
2022-10-20T17:51:04.580Z,67.93
2022-10-20T17:53:51.756Z,79.70
2022-10-20T17:56:24.141Z,69.38
2022-10-20T17:58:52.059Z,65.45
2022-10-20T18:01:22.029Z,81.15
2022-10-20T18:09:19.732Z,82.15
2022-10-20T18:11:49.184Z,80.53
2022-10-20T18:14:17.256Z,75.47
2022-10-20T18:16:44.423Z,76.57
2022-10-20T18:19:16.724Z,69.47
2022-10-20T18:21:43.804Z,73.88
2022-10-20T18:24:13.726Z,72.15
2022-10-20T18:26:40.661Z,71.47
2022-10-20T18:29:08.913Z,74.85
2022-10-20T18:31:37.511Z,79.03
2022-10-20T18:34:08.402Z,76.43
2022-10-20T18:36:40.396Z,78.05
2022-10-20T18:39:10.895Z,95.22
2022-10-20T18:41:40.074Z,83.78
2022-10-20T18:44:11.034Z,91.53
2022-10-20T18:46:39.431Z,92.50
2022-10-20T18:49:07.431Z,95.47
2022-10-20T18:51:36.080Z,87.43
2022-10-20T18:54:04.475Z,84.43
2022-10-20T18:56:31.475Z,78.38
2022-10-20T18:59:00.761Z,67.18
2022-10-20T19:01:30.152Z,64.13
2022-10-20T19:03:58.350Z,68.40
2022-10-20T19:06:31.014Z,75.60
2022-10-20T19:09:00.564Z,69.13
2022-10-20T19:11:33.215Z,67.97
2022-10-20T19:14:00.832Z,66.93
2022-10-20T19:16:30.782Z,63.13
2022-10-20T19:19:00.003Z,61.28
2022-10-20T19:21:28.592Z,54.05
2022-10-20T19:24:00.032Z,60.83
2022-10-20T19:26:29.934Z,67.85
2022-10-20T19:29:02.305Z,57.53
2022-10-20T19:31:33.955Z,64.93
2022-10-20T19:34:04.126Z,62.50
2022-10-20T19:36:30.900Z,60.28
2022-10-20T19:38:57.898Z,76.25
2022-10-20T19:41:24.858Z,66.22
2022-10-20T19:43:52.219Z,70.53
2022-10-20T19:46:20.667Z,76.57
2022-10-20T19:48:48.051Z,81.15
2022-10-20T19:51:16.260Z,71.50
2022-10-20T19:53:43.146Z,77.53
2022-10-20T19:56:10.556Z,84.25
2022-10-20T19:58:41.433Z,81.60
2022-10-20T20:01:11.841Z,82.03
2022-10-20T20:03:38.810Z,88.47
2022-10-20T20:06:17.102Z,85.57
2022-10-20T20:08:50.614Z,97.75
2022-10-20T20:11:27.075Z,91.43
2022-10-20T20:14:00.395Z,103.68
2022-10-20T20:16:28.015Z,103.20
2022-10-20T20:18:55.445Z,108.85
2022-10-20T20:21:23.187Z,101.25
2022-10-20T20:24:00.169Z,98.72
2022-10-20T20:26:32.956Z,104.15
2022-10-20T20:28:59.947Z,101.63
2022-10-20T20:31:27.428Z,96.22
2022-10-20T20:33:55.109Z,98.10
2022-10-20T20:36:22.015Z,97.18
2022-10-20T20:38:49.853Z,97.85
2022-10-20T20:41:18.713Z,98.03
2022-10-20T20:43:45.635Z,92.38
2022-10-20T20:46:18.358Z,90.22
2022-10-20T20:48:45.650Z,85.40
2022-10-20T20:51:13.617Z,91.10
2022-10-20T20:53:41.183Z,90.18
2022-10-20T20:56:13.883Z,88.63
2022-10-20T20:58:42.091Z,90.22
2022-10-20T21:01:13.241Z,87.97
2022-10-20T21:03:41.191Z,84.57
2022-10-20T21:06:10.473Z,88.20
2022-10-20T21:08:41.085Z,68.63
2022-10-20T21:11:10.365Z,76.07
2022-10-20T21:13:38.465Z,68.60
2022-10-20T21:16:24.036Z,70.90
2022-10-20T21:18:52.834Z,69.00
2022-10-20T21:21:22.646Z,62.63
2022-10-20T21:23:49.639Z,66.15
2022-10-20T21:26:18.673Z,55.60
2022-10-20T21:28:46.500Z,60.75
2022-10-20T21:31:17.231Z,60.47
2022-10-20T21:33:44.323Z,65.30
2022-10-20T21:36:16.633Z,73.85
2022-10-20T21:38:43.915Z,67.40
2022-10-20T21:41:26.114Z,66.88
2022-10-20T21:43:55.769Z,68.72
2022-10-20T21:46:29.934Z,67.57
2022-10-20T21:49:02.493Z,73.78
2022-10-20T21:51:36.215Z,72.80
2022-10-20T21:54:06.064Z,75.78
2022-10-20T21:56:37.496Z,74.60
2022-10-20T21:59:06.095Z,71.57
2022-10-20T22:01:33.606Z,70.05
2022-10-20T22:04:00.844Z,42.47
2022-10-20T22:06:28.435Z,41.78
2022-10-20T22:08:57.895Z,57.17
2022-10-20T22:11:30.632Z,53.28
2022-10-20T22:13:57.806Z,57.97
2022-10-20T22:16:30.604Z,52.50
2022-10-20T22:19:00.391Z,58.08
2022-10-20T22:21:28.555Z,58.78
2022-10-20T22:23:57.382Z,62.15
2022-10-20T22:26:27.591Z,58.95
2022-10-20T22:28:55.358Z,62.15
2022-10-20T22:33:33.998Z,58.97
2022-10-20T22:36:00.802Z,56.03
2022-10-20T22:38:27.808Z,58.70
2022-10-20T22:41:04.510Z,58.58
2022-10-20T22:45:59.199Z,66.85
2022-10-20T22:48:26.609Z,61.42
2022-10-20T22:51:01.193Z,59.95
2022-10-20T22:53:28.081Z,51.38
2022-10-20T22:55:54.976Z,48.08
2022-10-20T22:58:23.050Z,52.67
2022-10-20T23:00:50.352Z,51.03
2022-10-20T23:03:17.276Z,61.40
2022-10-20T23:05:44.084Z,38.10
2022-10-20T23:08:11.163Z,43.88
2022-10-20T23:10:38.078Z,43.13
2022-10-20T23:13:05.608Z,51.45
2022-10-20T23:15:32.689Z,51.92
2022-10-20T23:17:59.467Z,47.60
2022-10-20T23:20:26.301Z,49.92
2022-10-20T23:22:53.203Z,46.88
2022-10-20T23:25:20.104Z,50.83
2022-10-20T23:27:47.001Z,49.15
2022-10-20T23:30:17.943Z,53.15
2022-10-20T23:32:44.756Z,51.38
2022-10-20T23:35:11.886Z,56.22
2022-10-20T23:37:40.190Z,55.58
2022-10-20T23:40:07.828Z,57.95
2022-10-20T23:42:35.466Z,53.03
2022-10-20T23:45:05.186Z,51.47
2022-10-20T23:47:32.186Z,53.17
2022-10-20T23:50:00.667Z,49.42
2022-10-20T23:52:27.702Z,55.75
2022-10-20T23:54:54.528Z,54.30
2022-10-20T23:57:21.352Z,57.40
2022-10-20T23:59:48.171Z,52.72
